Terminal Aerodrome Forecast
Issued by NWS Billings, MT

Home | Current Version | Previous Version | Text Only | Print | Product List | Glossary Off
Versions: 1 2 3 4 5 6 7 8 9 10 11 12 13 14 15 16 17 18 19 20 21 22 23 24 25 26 27 28 29

000
FTUS45 KBYZ 311120
TAFMLS
TAF
KMLS 311120Z 3112/0112 VRB06KT P6SM VCSH SCT080 BKN100
     FM311800 32014KT 6SM SHRA BKN060
     FM312200 25006KT P6SM VCSH SCT060=

USA.gov is the U.S. government's official web portal to all federal, state and local government web resources and services.